createdAt,value
2017-12-30T00:01:01.689Z,1.48
2017-12-30T00:03:30.077Z,1.87
2017-12-30T00:05:58.443Z,4.28
2017-12-30T00:08:26.846Z,2.78
2017-12-30T00:10:55.213Z,2.47
2017-12-30T00:13:23.909Z,1.75
2017-12-30T00:15:52.265Z,2.65
2017-12-30T00:18:20.646Z,4.25
2017-12-30T00:20:49.046Z,3.55
2017-12-30T00:23:17.548Z,6.43
2017-12-30T00:25:47.094Z,7.20
2017-12-30T00:28:15.461Z,3.55
2017-12-30T00:30:43.821Z,5.78
2017-12-30T00:33:12.984Z,1.75
2017-12-30T00:35:41.955Z,2.10
2017-12-30T00:38:11.254Z,1.87
2017-12-30T00:40:41.356Z,1.00
2017-12-30T00:43:09.737Z,8.32
2017-12-30T00:45:39.193Z,2.25
2017-12-30T00:48:08.670Z,3.50
2017-12-30T00:50:38.662Z,1.02
2017-12-30T00:53:07.994Z,10.40
2017-12-30T00:55:36.373Z,2.42
2017-12-30T00:58:04.732Z,4.97
2017-12-30T01:00:33.253Z,5.12
2017-12-30T01:03:04.023Z,1.85
2017-12-30T01:05:32.460Z,3.72
2017-12-30T01:08:00.845Z,4.15
2017-12-30T01:10:30.357Z,3.10
2017-12-30T01:12:59.519Z,3.10
2017-12-30T01:15:28.645Z,4.78
2017-12-30T01:17:57.189Z,2.25
2017-12-30T01:20:25.992Z,6.72
2017-12-30T01:22:54.425Z,4.28
2017-12-30T01:25:22.808Z,1.98
2017-12-30T01:27:51.240Z,4.95
2017-12-30T01:30:19.927Z,12.82
2017-12-30T01:32:49.397Z,1.05
2017-12-30T01:35:18.091Z,7.70
2017-12-30T01:37:46.868Z,8.30
2017-12-30T01:40:15.257Z,3.58
2017-12-30T01:42:43.658Z,1.37
2017-12-30T01:45:12.043Z,4.15
2017-12-30T01:47:40.689Z,5.07
2017-12-30T01:50:09.121Z,4.90
2017-12-30T01:52:39.430Z,2.25
2017-12-30T01:55:07.952Z,2.05
2017-12-30T01:57:36.356Z,3.12
2017-12-30T02:00:04.776Z,4.72
2017-12-30T02:02:33.935Z,2.17
2017-12-30T02:05:02.304Z,6.70
2017-12-30T02:07:30.982Z,3.47
2017-12-30T02:09:59.346Z,5.03
2017-12-30T02:12:27.730Z,3.95
2017-12-30T02:14:56.128Z,16.55
2017-12-30T02:17:24.900Z,4.68
2017-12-30T02:19:53.398Z,4.07
2017-12-30T02:22:21.759Z,7.07
2017-12-30T02:24:50.129Z,8.38
2017-12-30T02:27:18.633Z,5.40
2017-12-30T02:29:47.028Z,5.85
2017-12-30T02:32:15.696Z,8.52
2017-12-30T02:34:44.061Z,4.55
2017-12-30T02:37:12.432Z,5.10
2017-12-30T02:39:40.877Z,3.65
2017-12-30T02:42:10.012Z,3.87
2017-12-30T02:44:38.634Z,6.35
2017-12-30T02:47:07.029Z,5.05
2017-12-30T02:49:35.393Z,4.65
2017-12-30T02:52:04.649Z,8.90
2017-12-30T02:54:33.796Z,6.40
2017-12-30T02:57:02.257Z,4.10
2017-12-30T02:59:31.449Z,11.43
2017-12-30T03:01:59.808Z,2.22
2017-12-30T03:04:28.184Z,9.63
2017-12-30T03:06:56.550Z,6.15
2017-12-30T03:09:25.189Z,7.22
2017-12-30T03:11:53.561Z,6.43
2017-12-30T03:14:21.925Z,4.10
2017-12-30T03:16:50.313Z,8.23
2017-12-30T03:19:18.679Z,8.93
2017-12-30T03:21:48.487Z,10.75
2017-12-30T03:24:17.864Z,6.05
2017-12-30T03:26:46.578Z,10.93
2017-12-30T03:29:15.049Z,6.03
2017-12-30T03:31:43.408Z,6.82
2017-12-30T03:34:12.121Z,13.10
2017-12-30T03:36:41.049Z,4.82
2017-12-30T03:39:09.774Z,4.97
2017-12-30T03:41:38.178Z,7.07
2017-12-30T03:44:06.540Z,4.45
2017-12-30T03:46:35.345Z,9.85
2017-12-30T03:49:03.717Z,7.55
2017-12-30T03:51:32.077Z,6.53
2017-12-30T03:54:00.471Z,12.75
2017-12-30T03:56:28.857Z,10.45
2017-12-30T03:58:57.253Z,6.45
2017-12-30T04:01:25.612Z,5.95
2017-12-30T04:03:53.989Z,11.40
2017-12-30T04:06:22.390Z,12.48
2017-12-30T04:08:50.761Z,13.25
2017-12-30T04:11:19.152Z,7.72
2017-12-30T04:13:47.527Z,11.27
2017-12-30T04:16:15.885Z,4.72
2017-12-30T04:18:44.279Z,8.07
2017-12-30T04:21:12.640Z,16.52
2017-12-30T04:23:41.410Z,3.55
2017-12-30T04:26:09.789Z,5.70
2017-12-30T04:28:38.154Z,7.85
2017-12-30T04:31:06.607Z,12.75
2017-12-30T04:33:34.962Z,7.85
2017-12-30T04:36:04.429Z,6.28
2017-12-30T04:38:32.801Z,12.23
2017-12-30T04:41:01.185Z,25.58
2017-12-30T04:43:29.585Z,5.57
2017-12-30T04:45:57.942Z,10.77
2017-12-30T04:48:26.443Z,9.80
2017-12-30T04:50:54.808Z,10.77
2017-12-30T04:53:23.176Z,16.90
2017-12-30T04:55:51.996Z,8.05
2017-12-30T04:58:20.463Z,11.45
2017-12-30T05:00:49.144Z,9.82
2017-12-30T05:03:17.496Z,4.50
2017-12-30T05:05:45.865Z,8.25
2017-12-30T05:08:15.020Z,13.00
2017-12-30T05:10:43.385Z,12.65
2017-12-30T05:13:12.245Z,9.15
2017-12-30T05:15:41.000Z,13.07
2017-12-30T05:18:10.839Z,20.27
2017-12-30T05:20:39.643Z,7.50
2017-12-30T05:23:08.409Z,8.27
2017-12-30T05:25:37.560Z,11.93
2017-12-30T05:28:06.350Z,3.95
2017-12-30T05:30:35.085Z,6.70
2017-12-30T05:33:04.173Z,9.77
2017-12-30T05:35:33.670Z,12.05
2017-12-30T05:38:03.308Z,9.73
2017-12-30T05:40:32.059Z,9.38
2017-12-30T05:43:01.540Z,6.80
2017-12-30T05:45:29.920Z,5.65
2017-12-30T05:47:58.288Z,14.27
2017-12-30T05:50:26.782Z,9.70
2017-12-30T05:52:55.154Z,5.55
2017-12-30T05:55:23.635Z,15.50
2017-12-30T05:57:52.014Z,6.53
2017-12-30T06:00:20.377Z,6.95
2017-12-30T06:02:49.057Z,14.60
2017-12-30T06:05:17.428Z,4.12
2017-12-30T06:07:45.818Z,13.98
2017-12-30T06:10:14.211Z,14.68
2017-12-30T06:12:42.585Z,11.70
2017-12-30T06:15:10.994Z,14.85
2017-12-30T06:17:40.144Z,11.68
2017-12-30T06:20:08.516Z,11.48
2017-12-30T06:22:36.920Z,15.98
2017-12-30T06:25:05.299Z,18.30
2017-12-30T06:27:33.953Z,10.32
2017-12-30T06:30:02.400Z,16.15
2017-12-30T06:32:31.534Z,19.80
2017-12-30T06:34:59.918Z,8.63
2017-12-30T06:37:29.054Z,6.97
2017-12-30T06:39:58.205Z,15.73
2017-12-30T06:42:26.604Z,11.52
2017-12-30T06:44:55.781Z,29.90
2017-12-30T06:47:24.188Z,8.57
2017-12-30T06:49:52.561Z,16.98
2017-12-30T06:52:20.928Z,20.75
2017-12-30T06:54:49.319Z,14.27
2017-12-30T06:57:17.690Z,5.82
2017-12-30T06:59:46.355Z,19.42
2017-12-30T07:02:14.743Z,14.13
2017-12-30T07:04:43.108Z,8.07
2017-12-30T07:07:11.497Z,5.03
2017-12-30T07:09:39.855Z,9.90
2017-12-30T07:12:08.393Z,6.75
2017-12-30T07:14:37.524Z,9.98
2017-12-30T07:17:05.928Z,9.45
2017-12-30T07:19:34.308Z,8.00
2017-12-30T07:22:02.690Z,14.13
2017-12-30T07:24:31.185Z,11.98
2017-12-30T07:26:59.546Z,13.55
2017-12-30T07:29:27.952Z,17.17
2017-12-30T07:31:56.377Z,11.60
2017-12-30T07:34:24.736Z,8.77
2017-12-30T07:36:53.977Z,21.00
2017-12-30T07:39:22.351Z,8.13
2017-12-30T07:41:50.719Z,10.40
2017-12-30T07:44:19.113Z,13.07
2017-12-30T07:46:47.485Z,8.10
2017-12-30T07:49:16.278Z,10.40
2017-12-30T07:51:44.656Z,17.42
2017-12-30T07:54:13.020Z,9.80
2017-12-30T07:56:41.409Z,5.93
2017-12-30T07:59:09.794Z,16.42
2017-12-30T08:01:38.303Z,12.85
2017-12-30T08:04:06.678Z,16.83
2017-12-30T08:06:35.053Z,13.32
2017-12-30T08:09:03.449Z,7.10
2017-12-30T08:11:32.600Z,17.02
2017-12-30T08:14:01.146Z,8.30
2017-12-30T08:16:30.286Z,12.23
2017-12-30T08:18:58.658Z,20.20
2017-12-30T08:21:27.045Z,7.12
2017-12-30T08:23:55.431Z,5.90
2017-12-30T08:26:24.101Z,15.48
2017-12-30T08:28:52.477Z,12.05
2017-12-30T08:31:20.863Z,7.25
2017-12-30T08:33:50.057Z,11.02
2017-12-30T08:36:18.457Z,11.82
2017-12-30T08:38:47.120Z,11.90
2017-12-30T08:41:15.573Z,12.40
2017-12-30T08:43:43.933Z,3.60
2017-12-30T08:46:13.090Z,13.98
2017-12-30T08:48:41.454Z,9.68
2017-12-30T08:51:09.918Z,3.50
2017-12-30T08:53:38.284Z,10.38
2017-12-30T08:56:06.650Z,12.15
2017-12-30T08:58:35.813Z,16.45
2017-12-30T09:01:04.176Z,6.45
2017-12-30T09:03:32.597Z,8.98
2017-12-30T09:06:01.737Z,17.17
2017-12-30T09:08:30.352Z,12.57
2017-12-30T09:10:58.748Z,9.38
2017-12-30T09:13:27.897Z,11.90
2017-12-30T09:15:56.369Z,8.30
2017-12-30T09:18:24.813Z,10.80
2017-12-30T09:20:53.956Z,4.62
2017-12-30T09:23:22.445Z,5.50
2017-12-30T09:25:50.915Z,9.35
2017-12-30T09:28:19.425Z,14.15
2017-12-30T09:30:47.805Z,15.27
2017-12-30T09:33:16.181Z,14.13
2017-12-30T09:35:44.870Z,6.60
2017-12-30T09:38:13.260Z,10.27
2017-12-30T09:40:42.576Z,10.90
2017-12-30T09:43:10.934Z,3.28
2017-12-30T09:45:39.305Z,22.30
2017-12-30T09:48:07.793Z,5.37
2017-12-30T09:50:36.160Z,11.60
2017-12-30T09:53:04.564Z,5.65
2017-12-30T09:55:33.754Z,9.13
2017-12-30T09:58:02.934Z,14.48
2017-12-30T10:00:32.271Z,10.98
2017-12-30T10:03:01.399Z,7.25
2017-12-30T10:05:30.189Z,8.30
2017-12-30T10:07:58.621Z,6.22
2017-12-30T10:10:27.797Z,6.22
2017-12-30T10:12:56.199Z,10.93
2017-12-30T10:15:25.344Z,5.45
2017-12-30T10:17:53.773Z,10.45
2017-12-30T10:20:22.921Z,11.90
2017-12-30T10:22:51.300Z,11.12
2017-12-30T10:25:19.716Z,14.85
2017-12-30T10:27:48.085Z,5.43
2017-12-30T10:30:17.377Z,9.48
2017-12-30T10:32:45.753Z,8.73
2017-12-30T10:35:14.117Z,7.57
2017-12-30T10:37:42.512Z,8.13
2017-12-30T10:40:10.880Z,3.55
2017-12-30T10:42:39.366Z,4.78
2017-12-30T10:45:07.732Z,4.75
2017-12-30T10:47:36.099Z,9.50
2017-12-30T10:50:04.505Z,9.52
2017-12-30T10:52:32.889Z,10.98
2017-12-30T10:55:01.340Z,9.80
2017-12-30T10:57:29.728Z,11.90
2017-12-30T10:59:58.106Z,6.57
2017-12-30T11:02:26.578Z,6.53
2017-12-30T11:04:55.059Z,5.75
2017-12-30T11:07:23.517Z,4.30
2017-12-30T11:09:51.920Z,5.07
2017-12-30T11:12:20.301Z,2.15
2017-12-30T11:14:48.872Z,9.63
2017-12-30T11:17:17.269Z,11.32
2017-12-30T11:19:46.139Z,3.47
2017-12-30T11:22:14.525Z,3.08
2017-12-30T11:24:42.897Z,2.85
2017-12-30T11:27:11.300Z,3.60
2017-12-30T11:29:39.658Z,3.33
2017-12-30T11:32:08.133Z,13.75
2017-12-30T11:34:36.495Z,1.67
2017-12-30T11:37:05.412Z,2.83
2017-12-30T11:39:33.813Z,1.50
2017-12-30T11:42:02.182Z,5.15
2017-12-30T11:44:30.861Z,5.30
2017-12-30T11:46:59.227Z,11.43
2017-12-30T11:49:27.635Z,5.28
2017-12-30T11:51:56.035Z,2.70
2017-12-30T11:54:24.409Z,2.45
2017-12-30T11:56:52.818Z,4.55
2017-12-30T11:59:21.239Z,4.85
2017-12-30T12:01:49.628Z,10.27
2017-12-30T12:04:18.025Z,5.30
2017-12-30T12:06:47.178Z,11.32
2017-12-30T12:09:15.608Z,9.88
2017-12-30T12:11:44.751Z,2.30
2017-12-30T12:14:13.105Z,9.00
2017-12-30T12:16:41.508Z,7.28
2017-12-30T12:19:09.894Z,10.77
2017-12-30T12:21:38.389Z,2.25
2017-12-30T12:24:06.790Z,7.07
2017-12-30T12:26:35.157Z,2.87
2017-12-30T12:29:03.549Z,2.37
2017-12-30T12:31:31.908Z,6.72
2017-12-30T12:34:00.391Z,4.07
2017-12-30T12:36:28.762Z,2.58
2017-12-30T12:38:57.164Z,2.42
2017-12-30T12:41:26.329Z,8.43
2017-12-30T12:43:55.476Z,5.32
2017-12-30T12:46:24.646Z,4.00
2017-12-30T12:48:53.006Z,5.80
2017-12-30T12:51:21.370Z,1.83
2017-12-30T12:53:49.793Z,6.62
2017-12-30T12:56:18.165Z,2.67
2017-12-30T12:58:46.680Z,2.37
2017-12-30T13:01:15.037Z,1.35
2017-12-30T13:03:44.173Z,7.70
2017-12-30T13:06:12.572Z,1.45
2017-12-30T13:08:40.935Z,9.38
2017-12-30T13:11:09.692Z,2.25
2017-12-30T13:13:38.022Z,2.42
2017-12-30T13:16:06.390Z,2.85
2017-12-30T13:18:34.788Z,2.85
2017-12-30T13:21:03.172Z,9.32
2017-12-30T13:23:31.675Z,3.22
2017-12-30T13:26:00.037Z,2.83
2017-12-30T13:28:29.192Z,4.87
2017-12-30T13:30:57.592Z,2.67
2017-12-30T13:33:25.999Z,3.95
2017-12-30T13:35:55.546Z,8.98
2017-12-30T13:38:23.906Z,3.20
2017-12-30T13:40:52.441Z,2.20
2017-12-30T13:43:20.834Z,4.20
2017-12-30T13:45:49.286Z,11.50
2017-12-30T13:48:18.781Z,9.75
2017-12-30T13:50:47.151Z,7.07
2017-12-30T13:53:15.564Z,7.37
2017-12-30T13:55:43.982Z,6.32
2017-12-30T13:58:13.269Z,7.35
2017-12-30T14:00:42.553Z,11.15
2017-12-30T14:03:10.922Z,4.37
2017-12-30T14:08:13.860Z,12.30
2017-12-30T14:10:42.332Z,4.87
2017-12-30T14:13:11.193Z,10.60
2017-12-30T14:15:39.788Z,3.03
2017-12-30T14:18:08.200Z,5.22
2017-12-30T14:20:36.673Z,6.20
2017-12-30T14:23:05.082Z,7.43
2017-12-30T14:25:33.975Z,3.35
2017-12-30T14:28:02.560Z,8.85
2017-12-30T14:30:30.949Z,9.85
2017-12-30T14:32:59.684Z,2.37
2017-12-30T14:35:28.175Z,1.55
2017-12-30T14:37:57.716Z,1.58
2017-12-30T14:40:26.184Z,1.20
2017-12-30T14:42:54.547Z,5.50
2017-12-30T14:45:23.171Z,2.75
2017-12-30T14:47:51.741Z,0.80
2017-12-30T14:50:20.364Z,0.93
2017-12-30T14:52:49.354Z,2.62
2017-12-30T14:55:19.033Z,1.05
2017-12-30T14:57:47.509Z,1.67
2017-12-30T15:00:15.933Z,1.05
2017-12-30T15:02:45.495Z,0.62
2017-12-30T15:05:13.991Z,0.50
2017-12-30T15:07:42.363Z,0.82
2017-12-30T15:10:11.140Z,0.90
2017-12-30T15:12:39.590Z,0.73
2017-12-30T15:15:08.117Z,3.22
2017-12-30T15:17:36.488Z,1.20
2017-12-30T15:20:05.177Z,0.60
2017-12-30T15:22:33.723Z,2.47
2017-12-30T15:25:02.102Z,1.40
2017-12-30T15:27:30.882Z,0.80
2017-12-30T15:29:59.622Z,0.85
2017-12-30T15:32:28.276Z,1.02
2017-12-30T15:34:56.719Z,1.20
2017-12-30T15:37:25.362Z,1.67
2017-12-30T15:39:54.238Z,3.83
2017-12-30T15:42:23.325Z,3.75
2017-12-30T15:44:51.802Z,1.62
2017-12-30T15:47:20.197Z,0.65
2017-12-30T15:49:48.739Z,2.12
2017-12-30T15:52:17.985Z,1.30
2017-12-30T15:54:46.442Z,7.80
2017-12-30T15:57:14.960Z,1.77
2017-12-30T15:59:43.678Z,0.95
2017-12-30T16:02:12.074Z,1.83
2017-12-30T16:04:40.789Z,3.45
2017-12-30T16:10:36.959Z,1.02
2017-12-30T16:13:14.415Z,0.98
2017-12-30T16:15:42.878Z,1.27
2017-12-30T16:18:11.254Z,0.70
2017-12-30T16:20:39.628Z,0.90
2017-12-30T16:23:08.033Z,1.75
2017-12-30T16:25:36.411Z,1.60
2017-12-30T16:28:05.200Z,0.80
2017-12-30T16:30:33.618Z,2.97
2017-12-30T16:33:02.050Z,0.80
2017-12-30T16:35:30.562Z,0.80
2017-12-30T16:37:58.964Z,1.40
2017-12-30T16:40:27.612Z,0.95
2017-12-30T16:42:56.065Z,0.88
2017-12-30T16:45:24.433Z,1.65
2017-12-30T16:47:53.577Z,1.05
2017-12-30T16:50:21.937Z,2.45
2017-12-30T16:52:50.619Z,0.70
2017-12-30T16:55:18.999Z,1.30
2017-12-30T16:57:47.371Z,3.00
2017-12-30T17:00:16.140Z,2.80
2017-12-30T17:02:44.842Z,0.82
2017-12-30T17:05:20.390Z,0.93
2017-12-30T17:08:05.048Z,0.95
2017-12-30T17:10:37.938Z,1.15
2017-12-30T17:13:06.973Z,0.85
2017-12-30T17:15:35.370Z,0.90
2017-12-30T17:18:04.604Z,0.80
2017-12-30T17:20:33.553Z,0.77
2017-12-30T17:23:01.938Z,1.50
2017-12-30T17:25:31.077Z,2.87
2017-12-30T17:27:59.540Z,0.70
2017-12-30T17:30:27.908Z,1.75
2017-12-30T17:32:57.041Z,0.70
2017-12-30T17:35:25.444Z,2.47
2017-12-30T17:37:53.842Z,1.15
2017-12-30T17:40:22.310Z,1.75
2017-12-30T17:42:51.477Z,3.00
2017-12-30T17:45:19.847Z,0.90
2017-12-30T17:47:48.241Z,1.30
2017-12-30T17:50:16.605Z,0.90
2017-12-30T17:52:45.099Z,0.75
2017-12-30T17:55:13.955Z,1.45
2017-12-30T17:57:42.332Z,1.98
2017-12-30T18:00:10.909Z,0.85
2017-12-30T18:02:40.048Z,3.03
2017-12-30T18:05:08.526Z,0.70
2017-12-30T18:07:37.537Z,0.77
2017-12-30T18:10:06.697Z,0.75
2017-12-30T18:12:35.089Z,0.70
2017-12-30T18:15:03.452Z,0.60
2017-12-30T18:17:32.084Z,0.95
2017-12-30T18:20:00.894Z,1.45
2017-12-30T18:22:30.582Z,1.37
2017-12-30T18:24:59.057Z,1.05
2017-12-30T18:27:27.433Z,0.70
2017-12-30T18:29:55.969Z,0.75
2017-12-30T18:32:25.590Z,0.75
2017-12-30T18:34:54.341Z,0.60
2017-12-30T18:37:23.070Z,1.25
2017-12-30T18:39:51.440Z,0.90
2017-12-30T18:42:19.905Z,1.70
2017-12-30T18:44:48.312Z,0.77
2017-12-30T18:47:16.820Z,0.77
2017-12-30T18:49:45.599Z,0.68
2017-12-30T18:52:13.957Z,2.25
2017-12-30T18:54:42.625Z,0.70
2017-12-30T18:57:10.980Z,0.90
2017-12-30T18:59:39.517Z,1.55
2017-12-30T19:02:08.358Z,3.08
2017-12-30T19:04:36.725Z,0.55
2017-12-30T19:07:05.974Z,1.08
2017-12-30T19:09:34.328Z,0.62
2017-12-30T19:12:03.034Z,1.30
2017-12-30T19:14:33.128Z,0.60
2017-12-30T19:17:01.834Z,1.85
2017-12-30T19:19:30.559Z,0.65
2017-12-30T19:21:59.120Z,3.58
2017-12-30T19:24:28.442Z,1.95
2017-12-30T19:26:56.883Z,0.57
2017-12-30T19:29:25.253Z,0.70
2017-12-30T19:31:54.567Z,0.98
2017-12-30T19:34:23.373Z,1.15
2017-12-30T19:36:51.760Z,0.60
2017-12-30T19:39:20.565Z,0.50
2017-12-30T19:41:49.014Z,0.68
2017-12-30T19:44:18.049Z,1.30
2017-12-30T19:46:47.380Z,1.10
2017-12-30T19:49:15.819Z,0.43
2017-12-30T19:51:45.037Z,1.83
2017-12-30T19:54:13.736Z,0.40
2017-12-30T19:56:42.157Z,4.72
2017-12-30T19:59:10.583Z,1.00
2017-12-30T20:01:38.959Z,1.15
2017-12-30T20:04:07.430Z,1.27
2017-12-30T20:06:36.022Z,0.70
2017-12-30T20:09:04.594Z,1.48
2017-12-30T20:11:33.837Z,0.60
2017-12-30T20:14:02.406Z,4.30
2017-12-30T20:16:30.808Z,1.00
2017-12-30T20:18:59.580Z,1.25
2017-12-30T20:21:29.000Z,1.95
2017-12-30T20:23:57.868Z,0.60
2017-12-30T20:26:26.756Z,1.00
2017-12-30T20:28:56.063Z,0.82
2017-12-30T20:31:24.431Z,3.28
2017-12-30T20:33:53.173Z,0.93
2017-12-30T20:36:21.643Z,0.90
2017-12-30T20:38:51.262Z,0.60
2017-12-30T20:41:20.021Z,0.52
2017-12-30T20:43:48.846Z,0.47
2017-12-30T20:46:17.738Z,1.20
2017-12-30T20:48:46.555Z,0.80
2017-12-30T20:51:15.282Z,4.03
2017-12-30T20:53:44.242Z,0.50
2017-12-30T20:56:13.028Z,1.85
2017-12-30T20:58:43.990Z,0.50
2017-12-30T21:01:13.213Z,0.60
2017-12-30T21:03:42.642Z,0.65
2017-12-30T21:06:11.620Z,0.40
2017-12-30T21:08:40.567Z,1.85
2017-12-30T21:11:09.731Z,0.40
2017-12-30T21:13:39.747Z,4.95
2017-12-30T21:16:08.783Z,4.22
2017-12-30T21:18:38.308Z,1.73
2017-12-30T21:21:06.817Z,0.77
2017-12-30T21:23:36.210Z,0.75
2017-12-30T21:26:06.467Z,0.73
2017-12-30T21:28:35.390Z,2.75
2017-12-30T21:31:04.293Z,0.65
2017-12-30T21:33:32.929Z,0.70
2017-12-30T21:36:01.433Z,11.88
2017-12-30T21:38:30.491Z,2.75
2017-12-30T21:40:59.116Z,0.93
2017-12-30T21:43:27.733Z,1.00
2017-12-30T21:45:56.395Z,0.77
2017-12-30T21:48:25.271Z,0.70
2017-12-30T21:50:53.852Z,0.50
2017-12-30T21:53:22.746Z,0.75
2017-12-30T21:55:51.444Z,0.70
2017-12-30T21:58:19.893Z,1.75
2017-12-30T22:00:48.386Z,5.57
2017-12-30T22:03:16.867Z,1.17
2017-12-30T22:05:45.743Z,1.10
2017-12-30T22:08:14.493Z,0.50
2017-12-30T22:10:43.138Z,0.65
2017-12-30T22:13:11.727Z,2.22
2017-12-30T22:15:40.443Z,0.55
2017-12-30T22:18:09.798Z,0.57
2017-12-30T22:20:38.207Z,0.82
2017-12-30T22:23:06.858Z,0.85
2017-12-30T22:25:35.537Z,1.33
2017-12-30T22:28:03.892Z,0.43
2017-12-30T22:30:32.321Z,4.22
2017-12-30T22:33:00.876Z,1.25
2017-12-30T22:35:29.271Z,0.40
2017-12-30T22:37:58.816Z,1.85
2017-12-30T22:40:28.526Z,3.25
2017-12-30T22:42:57.366Z,2.17
2017-12-30T22:45:25.811Z,0.40
2017-12-30T22:47:55.247Z,0.50
2017-12-30T22:50:23.750Z,0.73
2017-12-30T22:52:52.608Z,2.05
2017-12-30T22:55:21.480Z,0.60
2017-12-30T22:57:50.196Z,0.52
2017-12-30T23:00:19.234Z,0.82
2017-12-30T23:02:48.014Z,0.50
2017-12-30T23:05:17.573Z,0.65
2017-12-30T23:07:46.774Z,0.65
2017-12-30T23:10:15.461Z,0.93
2017-12-30T23:12:46.160Z,1.58
2017-12-30T23:15:14.974Z,2.37
2017-12-30T23:17:43.812Z,1.58
2017-12-30T23:20:12.941Z,0.40
2017-12-30T23:22:42.329Z,0.30
2017-12-30T23:25:17.837Z,0.40
2017-12-30T23:27:46.933Z,1.45
2017-12-30T23:30:17.858Z,0.70
2017-12-30T23:32:46.635Z,1.92
2017-12-30T23:35:15.033Z,0.60
2017-12-30T23:37:43.913Z,0.20
2017-12-30T23:40:12.685Z,0.43
2017-12-30T23:42:41.899Z,0.30
2017-12-30T23:45:10.703Z,4.10
2017-12-30T23:47:40.261Z,0.40
2017-12-30T23:50:09.420Z,2.85
2017-12-30T23:52:38.124Z,0.30
2017-12-30T23:55:07.160Z,0.30
2017-12-30T23:57:36.641Z,0.30
